Time;durP1;ratioP1;P1;durP2;ratioP2;P2;SDS_P1;SDS_P2;PMS_P1;PMS_P2;Temp;Humidity;BMP_temperature;BMP_pressure;BME280_temperature;BME280_humidity;BME280_pressure;Samples;Min_cycle;Max_cycle;Signal;HPM_P1;HPM_P2
2023/05/14 00:01:17;;;;;;;23.80;13.60;;;12.10;69.60;;;;;;5075938;28;46368;-65
2023/05/14 00:03:43;;;;;;;23.93;13.10;;;12.10;70.10;;;;;;5076363;28;46373;-65
2023/05/14 00:06:09;;;;;;;23.63;14.50;;;12.00;70.70;;;;;;5079175;28;46295;-65
2023/05/14 00:08:35;;;;;;;27.70;14.30;;;12.00;71.00;;;;;;5075377;28;46389;-65
2023/05/14 00:11:01;;;;;;;27.80;15.20;;;12.00;70.90;;;;;;5073193;28;46476;-65
2023/05/14 00:13:26;;;;;;;22.37;14.60;;;12.00;70.90;;;;;;5076060;28;45984;-65
2023/05/14 00:15:52;;;;;;;23.10;15.27;;;12.10;71.10;;;;;;5077063;28;45938;-65
2023/05/14 00:18:18;;;;;;;23.17;15.53;;;12.10;71.00;;;;;;5076692;28;46506;-65
2023/05/14 00:20:43;;;;;;;22.17;14.80;;;12.20;71.00;;;;;;5076118;28;46661;-66
2023/05/14 00:23:09;;;;;;;24.03;15.07;;;12.20;70.80;;;;;;5079568;27;46299;-65
2023/05/14 00:25:35;;;;;;;24.23;14.80;;;12.20;70.60;;;;;;5080987;28;47421;-65
2023/05/14 00:28:01;;;;;;;21.47;15.23;;;12.20;70.60;;;;;;5081409;28;46596;-65
2023/05/14 00:30:27;;;;;;;24.60;15.53;;;12.20;70.90;;;;;;5074599;28;46234;-65
2023/05/14 00:32:52;;;;;;;24.80;16.00;;;12.20;71.10;;;;;;5080241;28;46381;-65
2023/05/14 00:35:20;;;;;;;22.37;14.43;;;12.20;71.10;;;;;;5079666;28;46246;-66
2023/05/14 00:37:45;;;;;;;33.53;15.30;;;12.20;71.30;;;;;;5081860;28;46595;-65
2023/05/14 00:40:12;;;;;;;23.97;14.70;;;12.20;71.20;;;;;;5080059;28;46466;-66
2023/05/14 00:42:39;;;;;;;24.97;15.30;;;12.20;71.20;;;;;;5081267;28;46438;-65
2023/05/14 00:45:06;;;;;;;22.17;15.20;;;12.20;71.30;;;;;;5080767;28;46618;-64
2023/05/14 00:47:33;;;;;;;21.30;15.40;;;12.10;71.60;;;;;;5079186;28;46324;-65
2023/05/14 00:49:59;;;;;;;22.80;14.10;;;12.20;71.70;;;;;;5082518;28;46474;-65
2023/05/14 00:52:25;;;;;;;22.93;14.13;;;12.20;71.50;;;;;;5078301;28;46357;-65
2023/05/14 00:54:51;;;;;;;25.17;15.00;;;12.20;71.70;;;;;;5080787;28;47066;-65
2023/05/14 00:57:17;;;;;;;21.77;15.23;;;12.10;72.00;;;;;;5080320;28;46471;-65
2023/05/14 00:59:43;;;;;;;23.67;14.17;;;12.10;72.20;;;;;;5078712;27;46382;-65
2023/05/14 01:02:09;;;;;;;21.30;14.00;;;12.00;72.20;;;;;;5080608;28;46480;-65
2023/05/14 01:04:36;;;;;;;21.67;13.57;;;12.00;72.30;;;;;;5079797;28;46518;-65
2023/05/14 01:07:26;;;;;;;24.80;14.90;;;12.00;72.40;;;;;;5078908;28;46394;-66
2023/05/14 01:10:10;;;;;;;23.90;14.03;;;11.90;72.60;;;;;;5079439;28;46404;-64
2023/05/14 01:12:39;;;;;;;20.70;14.50;;;11.90;72.80;;;;;;5078410;28;46338;-64
2023/05/14 01:15:12;;;;;;;26.60;14.57;;;11.80;72.70;;;;;;5080512;28;48477;-64
2023/05/14 01:17:44;;;;;;;22.10;14.97;;;11.80;72.80;;;;;;5092138;27;46456;-66
2023/05/14 01:20:10;;;;;;;22.83;15.63;;;11.80;72.90;;;;;;5081131;28;46381;-65
2023/05/14 01:22:36;;;;;;;23.47;15.17;;;11.80;72.90;;;;;;5079906;28;46400;-65
2023/05/14 01:25:02;;;;;;;23.90;16.00;;;11.80;72.90;;;;;;5080020;28;46412;-66
2023/05/14 01:27:40;;;;;;;24.17;15.53;;;11.80;72.80;;;;;;5079382;28;45880;-66
2023/05/14 01:30:22;;;;;;;24.23;15.90;;;11.90;72.90;;;;;;5080310;28;46579;-65
2023/05/14 01:32:52;;;;;;;24.77;15.50;;;11.80;72.60;;;;;;5077803;28;46396;-65
2023/05/14 01:35:21;;;;;;;25.40;15.33;;;11.80;72.70;;;;;;5077859;28;46361;-64
2023/05/14 01:37:47;;;;;;;21.50;14.47;;;11.80;73.00;;;;;;5081066;28;46411;-65
2023/05/14 01:40:13;;;;;;;32.30;16.03;;;11.80;72.90;;;;;;5077380;28;46428;-65
2023/05/14 01:42:40;;;;;;;27.33;16.43;;;11.80;73.10;;;;;;5080423;28;46384;-64
2023/05/14 01:45:06;;;;;;;25.20;15.73;;;11.80;73.30;;;;;;5080396;28;46779;-64
2023/05/14 01:47:31;;;;;;;26.50;15.80;;;11.70;73.50;;;;;;5079911;28;45826;-65
2023/05/14 01:49:57;;;;;;;23.90;15.77;;;11.70;73.80;;;;;;5080758;28;46619;-64
2023/05/14 01:52:23;;;;;;;22.30;15.27;;;11.70;74.00;;;;;;5080510;28;46467;-65
2023/05/14 01:54:48;;;;;;;25.20;15.90;;;11.70;74.10;;;;;;5078445;28;46372;-65
2023/05/14 01:57:14;;;;;;;23.20;16.57;;;11.70;73.70;;;;;;5077250;28;46371;-64
2023/05/14 01:59:40;;;;;;;25.57;16.90;;;11.70;73.40;;;;;;5079241;28;46641;-64
2023/05/14 02:02:05;;;;;;;22.87;15.87;;;11.70;73.80;;;;;;5080706;28;46325;-65
2023/05/14 02:04:31;;;;;;;26.37;16.00;;;11.70;73.70;;;;;;5077212;28;46346;-65
2023/05/14 02:06:56;;;;;;;24.33;15.80;;;11.70;74.70;;;;;;5079455;28;46435;-65
2023/05/14 02:09:22;;;;;;;27.60;15.90;;;11.70;73.70;;;;;;5079702;28;46511;-65
2023/05/14 02:11:48;;;;;;;22.57;15.50;;;11.60;74.00;;;;;;5080807;28;46325;-65
2023/05/14 02:14:14;;;;;;;24.37;15.40;;;11.60;74.00;;;;;;5076976;28;47022;-65
2023/05/14 02:16:40;;;;;;;25.70;16.47;;;11.50;74.10;;;;;;5075985;28;46449;-65
2023/05/14 02:19:06;;;;;;;25.23;15.50;;;11.50;74.30;;;;;;5077118;28;45764;-65
2023/05/14 02:21:31;;;;;;;26.67;15.87;;;11.40;74.30;;;;;;5077471;28;46567;-65
2023/05/14 02:23:57;;;;;;;25.27;16.23;;;11.30;74.70;;;;;;5079276;28;46270;-64
2023/05/14 02:26:22;;;;;;;31.70;16.80;;;11.30;74.90;;;;;;5075968;28;46629;-64
2023/05/14 02:28:48;;;;;;;29.90;16.90;;;11.30;74.90;;;;;;5080981;28;46364;-65
2023/05/14 02:31:14;;;;;;;28.57;16.10;;;11.10;74.80;;;;;;5077155;28;46583;-64
2023/05/14 02:33:39;;;;;;;27.43;16.23;;;11.20;75.20;;;;;;5077875;28;46435;-64
2023/05/14 02:36:05;;;;;;;24.70;16.10;;;11.10;75.30;;;;;;5081009;28;46508;-64
2023/05/14 02:38:31;;;;;;;25.80;15.87;;;11.10;75.30;;;;;;5075241;28;45821;-64
2023/05/14 02:40:56;;;;;;;31.20;16.97;;;11.10;75.30;;;;;;5077176;28;46406;-64
2023/05/14 02:43:22;;;;;;;24.60;16.50;;;11.10;75.10;;;;;;5076604;28;46036;-64
2023/05/14 02:45:47;;;;;;;28.63;16.47;;;11.10;75.00;;;;;;5076218;27;46373;-64
2023/05/14 02:48:13;;;;;;;24.93;15.50;;;11.10;75.00;;;;;;5080566;28;46447;-65
2023/05/14 02:50:39;;;;;;;32.30;17.00;;;11.10;75.00;;;;;;5075433;28;46504;-64
2023/05/14 02:53:04;;;;;;;23.00;15.40;;;11.10;75.00;;;;;;5077521;28;46370;-65
2023/05/14 02:55:30;;;;;;;28.33;16.53;;;11.10;74.90;;;;;;5076524;28;46514;-66
2023/05/14 02:57:56;;;;;;;27.20;16.40;;;11.10;74.70;;;;;;5078334;28;46708;-65
2023/05/14 03:00:21;;;;;;;26.13;16.33;;;11.20;74.40;;;;;;5077862;28;46659;-64
2023/05/14 03:02:47;;;;;;;28.80;17.00;;;11.10;74.50;;;;;;5078196;28;48068;-64
2023/05/14 03:05:13;;;;;;;36.17;17.43;;;11.10;74.60;;;;;;5078734;28;47616;-65
2023/05/14 03:07:38;;;;;;;28.70;17.00;;;11.00;74.70;;;;;;5075724;28;46611;-64
2023/05/14 03:10:05;;;;;;;32.20;17.07;;;11.00;74.70;;;;;;5080139;28;46425;-65
2023/05/14 03:12:30;;;;;;;32.17;16.70;;;11.10;74.80;;;;;;5075234;28;47999;-66
2023/05/14 03:14:56;;;;;;;24.40;15.73;;;11.10;74.60;;;;;;5076742;28;46535;-66
2023/05/14 03:17:21;;;;;;;26.40;17.20;;;11.20;74.40;;;;;;5079292;28;46530;-65
2023/05/14 03:19:47;;;;;;;33.83;18.50;;;11.20;74.10;;;;;;5078747;28;46424;-65
2023/05/14 03:22:13;;;;;;;27.33;15.70;;;11.20;74.20;;;;;;5079391;28;46426;-65
2023/05/14 03:24:39;;;;;;;28.50;17.00;;;11.10;74.50;;;;;;5077641;28;47307;-65
2023/05/14 03:27:05;;;;;;;25.63;15.70;;;11.20;74.20;;;;;;5078899;27;45774;-65
2023/05/14 03:29:31;;;;;;;24.70;15.63;;;11.20;74.10;;;;;;5077482;28;46457;-65
2023/05/14 03:31:57;;;;;;;24.07;15.60;;;11.20;74.30;;;;;;5077234;28;46243;-66
2023/05/14 03:34:23;;;;;;;31.70;16.90;;;11.10;74.40;;;;;;5078451;28;46573;-65
2023/05/14 03:36:49;;;;;;;26.37;16.93;;;11.10;74.40;;;;;;5075308;28;46523;-65
2023/05/14 03:39:18;;;;;;;27.73;16.47;;;11.10;74.40;;;;;;5076664;28;46447;-65
2023/05/14 03:41:45;;;;;;;25.50;15.80;;;11.10;74.40;;;;;;5074888;28;47098;-64
2023/05/14 03:44:10;;;;;;;27.10;15.33;;;11.10;74.30;;;;;;5078294;28;46463;-65
2023/05/14 03:46:36;;;;;;;28.60;16.87;;;11.20;74.20;;;;;;5077496;28;46343;-65
2023/05/14 03:49:02;;;;;;;26.93;16.60;;;11.20;73.90;;;;;;5078772;28;46310;-65
2023/05/14 03:51:27;;;;;;;27.80;16.50;;;11.20;73.90;;;;;;5078076;28;46436;-65
2023/05/14 03:53:53;;;;;;;26.40;16.93;;;11.20;73.90;;;;;;5075762;28;46207;-65
2023/05/14 03:56:18;;;;;;;31.07;17.10;;;11.30;74.00;;;;;;5079623;27;46424;-65
2023/05/14 03:58:44;;;;;;;24.10;16.17;;;11.20;74.00;;;;;;5080775;28;46431;-65
2023/05/14 04:01:09;;;;;;;36.10;17.33;;;11.20;74.00;;;;;;5078255;28;46433;-65
2023/05/14 04:03:35;;;;;;;32.70;19.27;;;11.30;74.00;;;;;;5079706;28;45826;-64
2023/05/14 04:06:01;;;;;;;33.47;19.83;;;11.30;74.00;;;;;;5082116;28;46535;-65
2023/05/14 04:08:26;;;;;;;29.70;18.73;;;11.20;74.10;;;;;;5082396;28;46492;-65
2023/05/14 04:10:52;;;;;;;32.43;18.37;;;11.20;74.30;;;;;;5080533;28;47214;-65
2023/05/14 04:13:17;;;;;;;29.80;17.00;;;11.20;74.20;;;;;;5079403;28;46657;-65
2023/05/14 04:15:43;;;;;;;29.70;18.43;;;11.10;74.30;;;;;;5080595;28;46401;-65
2023/05/14 04:18:09;;;;;;;29.17;16.73;;;11.10;74.30;;;;;;5081142;28;46517;-66
2023/05/14 04:20:35;;;;;;;29.93;16.80;;;11.20;74.20;;;;;;5081184;28;47084;-65
2023/05/14 04:23:01;;;;;;;27.27;17.43;;;11.10;74.20;;;;;;5080858;28;46537;-65
2023/05/14 04:25:27;;;;;;;28.10;17.87;;;11.20;74.30;;;;;;5080913;28;46443;-65
2023/05/14 04:27:53;;;;;;;29.90;19.13;;;11.10;74.60;;;;;;5080253;28;46299;-65
2023/05/14 04:30:18;;;;;;;26.93;16.37;;;11.20;74.30;;;;;;5078387;27;46435;-64
2023/05/14 04:32:44;;;;;;;25.03;15.80;;;11.30;73.90;;;;;;5082375;28;46318;-65
2023/05/14 04:35:10;;;;;;;23.23;15.90;;;11.30;73.80;;;;;;5078513;28;46356;-64
2023/05/14 04:37:36;;;;;;;24.33;15.93;;;11.40;73.70;;;;;;5082324;28;46521;-64
2023/05/14 04:40:01;;;;;;;26.93;16.67;;;11.40;73.40;;;;;;5080075;28;46597;-65
2023/05/14 04:42:27;;;;;;;26.20;15.67;;;11.40;73.20;;;;;;5081268;28;46474;-65
2023/05/14 04:44:52;;;;;;;26.83;16.67;;;11.40;73.50;;;;;;5079839;28;46492;-65
2023/05/14 04:47:19;;;;;;;26.43;16.00;;;11.40;73.60;;;;;;5080580;28;46416;-65
2023/05/14 04:49:45;;;;;;;27.90;17.37;;;11.30;73.80;;;;;;5075831;28;46397;-65
2023/05/14 04:52:11;;;;;;;26.90;16.90;;;11.40;73.80;;;;;;5080021;28;46448;-64
2023/05/14 04:54:36;;;;;;;29.63;16.73;;;11.40;73.60;;;;;;5079816;28;46564;-65
2023/05/14 04:57:02;;;;;;;27.40;16.87;;;11.50;73.50;;;;;;5079795;28;46420;-66
2023/05/14 04:59:31;;;;;;;27.00;16.73;;;11.40;73.70;;;;;;5079750;28;46890;-66
2023/05/14 05:01:57;;;;;;;27.73;16.63;;;11.30;74.00;;;;;;5075690;27;46362;-64
2023/05/14 05:04:23;;;;;;;25.57;15.97;;;11.30;73.80;;;;;;5079255;28;46459;-66
2023/05/14 05:06:49;;;;;;;29.63;17.17;;;11.40;73.50;;;;;;5078261;28;46552;-65
2023/05/14 05:09:16;;;;;;;28.70;17.70;;;11.50;73.10;;;;;;5076533;27;47094;-65
2023/05/14 05:11:41;;;;;;;26.20;16.00;;;11.60;73.20;;;;;;5078820;28;46453;-65
2023/05/14 05:14:07;;;;;;;26.70;16.87;;;11.60;73.00;;;;;;5079481;28;46400;-65
2023/05/14 05:16:33;;;;;;;28.20;16.27;;;11.70;73.00;;;;;;5080349;28;46416;-65
2023/05/14 05:18:58;;;;;;;29.90;15.93;;;11.60;73.20;;;;;;5080098;28;48412;-65
2023/05/14 05:21:24;;;;;;;25.10;15.10;;;11.60;73.00;;;;;;5081999;28;46360;-65
2023/05/14 05:23:50;;;;;;;26.10;15.80;;;11.50;73.00;;;;;;5078089;28;46475;-65
2023/05/14 05:26:15;;;;;;;25.30;14.00;;;11.60;73.20;;;;;;5079899;28;45810;-65
2023/05/14 05:28:41;;;;;;;26.50;15.67;;;11.60;72.90;;;;;;5076303;28;46319;-65
2023/05/14 05:31:06;;;;;;;21.90;15.23;;;11.70;73.00;;;;;;5080939;28;46404;-65
2023/05/14 05:33:33;;;;;;;26.60;15.60;;;11.70;72.80;;;;;;5080049;28;46372;-65
2023/05/14 05:35:59;;;;;;;22.23;14.67;;;12.00;72.50;;;;;;5076693;27;46437;-65
2023/05/14 05:38:26;;;;;;;30.77;15.53;;;12.10;71.90;;;;;;5082550;28;46515;-65
2023/05/14 05:40:53;;;;;;;23.93;14.37;;;12.20;71.70;;;;;;5076890;28;45774;-65
2023/05/14 05:43:18;;;;;;;19.83;13.40;;;12.20;71.30;;;;;;5075929;28;46442;-65
2023/05/14 05:45:44;;;;;;;21.43;14.27;;;12.20;71.10;;;;;;5080380;28;46257;-66
2023/05/14 05:48:12;;;;;;;19.07;13.17;;;12.20;71.20;;;;;;5080223;28;47212;-65
2023/05/14 05:50:38;;;;;;;22.90;14.50;;;12.30;71.40;;;;;;5083639;28;46553;-65
2023/05/14 05:53:04;;;;;;;22.73;13.57;;;12.20;71.50;;;;;;5075400;28;46365;-65
2023/05/14 05:55:39;;;;;;;23.40;14.80;;;12.30;71.10;;;;;;5077125;28;46659;-65
2023/05/14 05:58:05;;;;;;;24.73;14.23;;;12.30;70.80;;;;;;5078512;28;46568;-65
2023/05/14 06:00:32;;;;;;;24.50;13.63;;;12.40;70.70;;;;;;5076449;28;45908;-66
2023/05/14 06:02:58;;;;;;;20.07;12.87;;;12.40;70.30;;;;;;5076542;28;45826;-67
2023/05/14 06:05:25;;;;;;;23.27;13.37;;;12.60;70.30;;;;;;5078365;27;46437;-64
2023/05/14 06:07:53;;;;;;;24.90;14.60;;;12.80;69.90;;;;;;5077038;28;46724;-64
2023/05/14 06:10:35;;;;;;;22.83;13.80;;;12.90;69.30;;;;;;5079933;28;46475;-64
2023/05/14 06:13:24;;;;;;;18.37;12.30;;;13.00;69.00;;;;;;5072237;27;45781;-64
2023/05/14 06:15:55;;;;;;;25.10;15.20;;;13.00;68.70;;;;;;5078944;28;46381;-64
2023/05/14 06:18:33;;;;;;;22.67;14.83;;;12.90;69.10;;;;;;5079724;28;46535;-64
2023/05/14 06:21:07;;;;;;;22.73;13.10;;;12.80;69.30;;;;;;5078958;27;46401;-64
2023/05/14 06:23:40;;;;;;;25.23;15.23;;;12.50;69.50;;;;;;5078258;28;46514;-64
2023/05/14 06:26:23;;;;;;;22.80;13.50;;;12.30;70.00;;;;;;5078232;28;45937;-64
2023/05/14 06:28:52;;;;;;;25.10;13.20;;;12.20;70.30;;;;;;5074973;28;46448;-64
2023/05/14 06:31:18;;;;;;;21.30;14.20;;;12.20;70.40;;;;;;5077792;28;46009;-63
2023/05/14 06:33:44;;;;;;;26.23;13.43;;;12.20;70.20;;;;;;5076519;28;46610;-66
2023/05/14 06:36:11;;;;;;;28.50;14.23;;;12.20;70.00;;;;;;5061449;28;46403;-65
2023/05/14 06:38:36;;;;;;;22.27;13.97;;;12.20;70.00;;;;;;5079129;28;46298;-64
2023/05/14 06:41:05;;;;;;;25.30;15.27;;;12.30;69.90;;;;;;5080511;28;46356;-65
2023/05/14 06:43:34;;;;;;;21.10;12.90;;;12.30;69.90;;;;;;5078459;28;45759;-64
2023/05/14 06:46:03;;;;;;;22.87;13.17;;;12.30;69.70;;;;;;5078655;28;46290;-63
2023/05/14 06:48:30;;;;;;;24.10;13.20;;;12.40;69.50;;;;;;5079993;28;46606;-65
2023/05/14 06:50:55;;;;;;;23.47;13.67;;;12.40;69.60;;;;;;5076661;28;46673;-66
2023/05/14 06:53:23;;;;;;;23.70;15.07;;;12.40;69.60;;;;;;5078536;27;46438;-64
2023/05/14 06:56:00;;;;;;;24.43;13.73;;;12.40;69.20;;;;;;5084973;28;45958;-64
2023/05/14 06:58:30;;;;;;;24.00;13.40;;;12.50;68.90;;;;;;5086285;27;46297;-63
2023/05/14 07:00:58;;;;;;;21.13;12.00;;;12.60;68.80;;;;;;5077515;28;46836;-66
2023/05/14 07:03:30;;;;;;;24.70;13.37;;;12.70;68.60;;;;;;5078772;28;46426;-63
2023/05/14 07:06:09;;;;;;;25.67;14.93;;;12.80;68.50;;;;;;5077018;27;46413;-64
2023/05/14 07:08:41;;;;;;;23.40;13.67;;;12.90;68.10;;;;;;5076067;28;46642;-64
2023/05/14 07:11:29;;;;;;;23.97;14.80;;;12.90;68.00;;;;;;5078749;28;46488;-62
2023/05/14 07:13:58;;;;;;;24.20;14.03;;;12.80;68.00;;;;;;5074840;27;46429;-63
2023/05/14 07:16:24;;;;;;;23.03;12.70;;;12.80;68.30;;;;;;5076043;28;46582;-64
2023/05/14 07:18:50;;;;;;;23.20;13.60;;;12.90;68.00;;;;;;5075988;28;46364;-64
2023/05/14 07:21:16;;;;;;;21.17;13.33;;;13.00;67.60;;;;;;5073913;28;46741;-63
2023/05/14 07:23:56;;;;;;;24.23;11.33;;;13.10;67.30;;;;;;5077417;28;46445;-64
2023/05/14 07:26:27;;;;;;;22.83;13.13;;;13.00;67.30;;;;;;5070945;28;46474;-64
2023/05/14 07:29:02;;;;;;;23.20;13.00;;;13.10;67.30;;;;;;5078082;28;46642;-65
2023/05/14 07:31:28;;;;;;;22.13;14.03;;;13.00;69.00;;;;;;5078586;27;46432;-65
2023/05/14 07:33:55;;;;;;;24.57;14.53;;;12.80;68.40;;;;;;5077330;28;46479;-66
2023/05/14 07:36:21;;;;;;;19.87;12.57;;;12.70;68.30;;;;;;5082682;28;46599;-65
2023/05/14 07:38:48;;;;;;;18.70;11.83;;;12.60;68.20;;;;;;5080609;27;47245;-65
2023/05/14 07:41:14;;;;;;;22.33;13.10;;;12.60;68.40;;;;;;5080739;28;46389;-64
2023/05/14 07:43:45;;;;;;;23.80;13.83;;;12.60;68.40;;;;;;5075408;28;46381;-64
2023/05/14 07:46:11;;;;;;;24.10;12.60;;;12.70;68.00;;;;;;5076334;27;46500;-65
2023/05/14 07:48:36;;;;;;;21.87;12.73;;;12.80;67.90;;;;;;5080424;28;47750;-64
2023/05/14 07:51:02;;;;;;;20.77;13.70;;;12.70;68.30;;;;;;5080648;28;46492;-65
2023/05/14 07:53:28;;;;;;;20.20;12.00;;;12.70;68.20;;;;;;5082424;28;46361;-64
2023/05/14 07:55:54;;;;;;;17.80;11.83;;;12.80;68.10;;;;;;5078749;28;46416;-64
2023/05/14 07:58:20;;;;;;;20.30;11.70;;;13.00;67.70;;;;;;5082740;28;47016;-64
2023/05/14 08:00:46;;;;;;;20.50;11.90;;;13.20;67.50;;;;;;5083470;28;46733;-66
2023/05/14 08:03:12;;;;;;;20.03;12.30;;;13.50;67.60;;;;;;5081757;28;46394;-64
2023/05/14 08:05:41;;;;;;;16.97;10.17;;;14.00;66.30;;;;;;5082721;28;46459;-64
2023/05/14 08:08:07;;;;;;;16.63;10.03;;;14.20;65.70;;;;;;5079300;28;47015;-65
2023/05/14 08:10:33;;;;;;;18.77;9.97;;;14.50;64.60;;;;;;5077958;28;46390;-64
2023/05/14 08:12:58;;;;;;;15.63;9.53;;;14.70;63.80;;;;;;5074630;27;46084;-64
2023/05/14 08:15:24;;;;;;;13.97;8.60;;;14.80;62.70;;;;;;5081209;28;46626;-64
2023/05/14 08:17:49;;;;;;;13.10;7.80;;;14.80;62.60;;;;;;5078808;28;46541;-64
2023/05/14 08:20:15;;;;;;;14.90;8.40;;;15.10;60.50;;;;;;5078267;28;46452;-64
2023/05/14 08:22:41;;;;;;;20.30;10.50;;;15.40;60.50;;;;;;5077912;28;46279;-65
2023/05/14 08:25:07;;;;;;;21.43;10.63;;;15.50;60.00;;;;;;5076809;28;46445;-65
2023/05/14 08:27:32;;;;;;;16.53;11.70;;;15.30;59.40;;;;;;5082185;28;47541;-66
2023/05/14 08:29:58;;;;;;;20.67;11.83;;;15.10;59.40;;;;;;5079243;28;46559;-65
2023/05/14 08:32:23;;;;;;;18.87;10.27;;;15.00;59.30;;;;;;5080748;28;46440;-64
2023/05/14 08:34:50;;;;;;;15.23;10.03;;;14.80;58.10;;;;;;5072280;28;46463;-65
2023/05/14 08:37:16;;;;;;;15.90;10.00;;;14.60;58.80;;;;;;5079192;28;47181;-66
2023/05/14 08:39:41;;;;;;;13.33;8.90;;;14.30;59.40;;;;;;5080928;28;46505;-68
2023/05/14 08:42:11;;;;;;;15.00;9.13;;;14.70;58.90;;;;;;5077647;28;46347;-68
2023/05/14 08:44:52;;;;;;;14.23;8.97;;;15.10;57.30;;;;;;5075095;28;46647;-68
2023/05/14 08:47:20;;;;;;;14.50;8.50;;;15.50;56.70;;;;;;5079622;28;47255;-67
2023/05/14 08:49:48;;;;;;;11.93;8.53;;;15.60;55.20;;;;;;5076056;28;46438;-67
2023/05/14 08:52:16;;;;;;;15.83;9.80;;;15.40;55.50;;;;;;5080395;28;46459;-67
2023/05/14 08:54:43;;;;;;;16.40;10.40;;;15.40;55.50;;;;;;5079626;28;46654;-67
2023/05/14 08:57:09;;;;;;;19.23;12.20;;;15.40;54.90;;;;;;5074120;28;48199;-67
2023/05/14 08:59:35;;;;;;;20.10;12.80;;;15.00;55.80;;;;;;5080046;28;46124;-67
2023/05/14 09:02:03;;;;;;;19.23;11.50;;;14.60;55.90;;;;;;5077700;28;46445;-66
2023/05/14 09:04:31;;;;;;;19.43;12.40;;;14.30;56.30;;;;;;5074676;28;45883;-67
2023/05/14 09:06:58;;;;;;;21.70;13.73;;;14.30;56.70;;;;;;5075002;28;47233;-69
2023/05/14 09:09:24;;;;;;;23.43;14.27;;;14.10;57.40;;;;;;5078520;28;46325;-69
2023/05/14 09:11:52;;;;;;;23.20;13.97;;;14.10;57.90;;;;;;5077182;28;46753;-69
2023/05/14 09:14:17;;;;;;;21.17;13.13;;;14.10;58.10;;;;;;5076086;28;46817;-69
2023/05/14 09:16:47;;;;;;;19.30;13.30;;;13.90;57.80;;;;;;5082645;28;46701;-68
2023/05/14 09:19:14;;;;;;;23.30;13.97;;;13.80;57.60;;;;;;5077316;28;46336;-67
2023/05/14 09:21:41;;;;;;;25.03;14.63;;;14.00;57.50;;;;;;5080089;28;46460;-68
2023/05/14 09:24:07;;;;;;;22.90;12.77;;;14.00;57.30;;;;;;5075561;28;46522;-67
2023/05/14 09:26:34;;;;;;;21.30;14.33;;;14.00;57.20;;;;;;5078041;28;48240;-67
2023/05/14 09:29:01;;;;;;;18.93;12.40;;;14.10;57.00;;;;;;5076516;28;45882;-68
2023/05/14 09:31:30;;;;;;;22.13;13.10;;;14.10;57.00;;;;;;5077934;28;45898;-68
2023/05/14 09:33:57;;;;;;;22.03;14.00;;;13.80;57.20;;;;;;5077624;28;46801;-64
2023/05/14 09:36:26;;;;;;;16.83;11.60;;;13.60;57.50;;;;;;5079137;28;46388;-64
2023/05/14 09:38:55;;;;;;;17.47;11.30;;;13.60;57.90;;;;;;5080044;28;46687;-64
2023/05/14 09:41:21;;;;;;;17.33;11.73;;;13.60;57.90;;;;;;5078116;28;46448;-64
2023/05/14 09:43:47;;;;;;;16.60;11.07;;;13.60;57.90;;;;;;5076583;28;46365;-65
2023/05/14 09:46:13;;;;;;;17.87;11.53;;;13.60;57.90;;;;;;5076384;28;46556;-65
2023/05/14 09:48:39;;;;;;;13.70;10.17;;;13.60;57.70;;;;;;5078389;28;46503;-65
2023/05/14 09:51:04;;;;;;;15.53;9.90;;;13.50;58.10;;;;;;5079558;28;46510;-64
2023/05/14 09:53:32;;;;;;;17.20;10.97;;;13.40;58.20;;;;;;5076641;28;46623;-65
2023/05/14 09:55:58;;;;;;;16.33;10.80;;;13.40;58.50;;;;;;5076533;28;46411;-64
2023/05/14 09:58:24;;;;;;;14.13;10.83;;;13.40;58.50;;;;;;5077065;28;46260;-65
2023/05/14 10:00:50;;;;;;;16.10;11.20;;;13.30;58.40;;;;;;5074098;28;46412;-65
2023/05/14 10:03:19;;;;;;;16.23;10.60;;;13.40;58.30;;;;;;5074478;28;46471;-64
2023/05/14 10:05:47;;;;;;;20.70;11.60;;;13.40;58.30;;;;;;5076046;28;46420;-64
2023/05/14 10:08:20;;;;;;;14.60;9.93;;;13.50;58.00;;;;;;5075928;28;45805;-64
2023/05/14 10:10:50;;;;;;;16.93;11.40;;;13.50;57.90;;;;;;5079890;28;46336;-65
2023/05/14 10:13:22;;;;;;;15.30;10.70;;;13.60;57.70;;;;;;5076063;28;46687;-64
2023/05/14 10:15:54;;;;;;;19.53;10.47;;;13.60;57.60;;;;;;5092766;27;47349;-64
2023/05/14 10:18:22;;;;;;;17.23;9.57;;;13.60;57.80;;;;;;5079184;28;46693;-65
2023/05/14 10:21:04;;;;;;;14.23;10.10;;;13.60;57.50;;;;;;5076453;28;46344;-64
2023/05/14 10:23:30;;;;;;;14.70;10.13;;;13.70;57.20;;;;;;5077255;28;46513;-64
2023/05/14 10:25:57;;;;;;;12.57;9.23;;;13.80;56.60;;;;;;5078805;28;46672;-64
2023/05/14 10:28:23;;;;;;;12.53;9.23;;;13.90;56.60;;;;;;5078892;28;46408;-65
2023/05/14 10:30:49;;;;;;;13.50;9.20;;;14.10;55.50;;;;;;5077970;28;46511;-65
2023/05/14 10:33:15;;;;;;;13.60;9.87;;;14.20;55.50;;;;;;5077713;28;46512;-64
2023/05/14 10:36:02;;;;;;;15.50;9.40;;;14.10;55.40;;;;;;5078751;28;46515;-65
2023/05/14 10:38:28;;;;;;;13.23;9.60;;;14.50;55.70;;;;;;5072756;28;46545;-65
2023/05/14 10:40:59;;;;;;;11.90;8.57;;;14.90;54.30;;;;;;5073518;28;46347;-66
2023/05/14 10:43:30;;;;;;;11.70;8.60;;;15.30;53.50;;;;;;5077828;27;46465;-65
2023/05/14 10:45:57;;;;;;;10.87;7.87;;;15.20;53.20;;;;;;5076803;28;47377;-65
2023/05/14 10:48:24;;;;;;;14.07;10.00;;;15.20;52.60;;;;;;5078082;28;46539;-65
2023/05/14 10:50:50;;;;;;;12.87;8.20;;;15.20;52.00;;;;;;5076810;28;46385;-65
2023/05/14 10:53:16;;;;;;;12.33;8.37;;;15.30;52.30;;;;;;5077350;28;46372;-65
2023/05/14 10:55:42;;;;;;;13.77;8.50;;;15.30;52.10;;;;;;5077134;28;46253;-65
2023/05/14 10:58:09;;;;;;;10.93;8.27;;;15.40;51.80;;;;;;5075919;28;46465;-66
2023/05/14 11:00:36;;;;;;;10.70;8.07;;;15.60;51.00;;;;;;5078611;28;46478;-65
2023/05/14 11:03:06;;;;;;;10.67;7.30;;;15.70;50.50;;;;;;5077456;28;46428;-65
2023/05/14 11:05:36;;;;;;;13.33;8.80;;;15.60;51.00;;;;;;5075027;28;46447;-65
2023/05/14 11:08:05;;;;;;;10.03;7.70;;;15.70;51.10;;;;;;5076642;28;46546;-65
2023/05/14 11:10:31;;;;;;;11.13;8.00;;;15.80;50.80;;;;;;5077929;28;46265;-65
2023/05/14 11:12:57;;;;;;;11.60;8.27;;;15.90;49.00;;;;;;5074410;28;45897;-65
2023/05/14 11:15:25;;;;;;;13.57;8.93;;;15.90;49.30;;;;;;5077240;28;47307;-65
2023/05/14 11:17:51;;;;;;;12.50;8.00;;;16.00;50.20;;;;;;5076898;28;46580;-65
2023/05/14 11:20:18;;;;;;;9.60;7.13;;;16.00;49.10;;;;;;5076780;28;46531;-66
2023/05/14 11:22:46;;;;;;;15.30;9.77;;;15.80;48.90;;;;;;5078735;28;46415;-65
2023/05/14 11:25:13;;;;;;;11.30;8.17;;;15.70;49.40;;;;;;5077051;28;46592;-64
2023/05/14 11:27:40;;;;;;;11.77;8.40;;;15.50;49.60;;;;;;5076389;28;46514;-64
2023/05/14 11:30:19;;;;;;;11.37;8.10;;;15.30;50.60;;;;;;5078177;28;46888;-64
2023/05/14 11:32:46;;;;;;;12.27;8.33;;;15.00;51.10;;;;;;5075198;28;46673;-64
2023/05/14 11:35:12;;;;;;;10.63;8.20;;;14.70;51.50;;;;;;5076833;28;47492;-64
2023/05/14 11:37:38;;;;;;;12.03;7.83;;;14.70;51.90;;;;;;5076789;28;46469;-65
2023/05/14 11:40:08;;;;;;;12.03;7.87;;;14.60;51.70;;;;;;5078004;28;46312;-65
2023/05/14 11:42:36;;;;;;;10.70;7.30;;;14.60;51.90;;;;;;5079062;28;46395;-65
2023/05/14 11:45:01;;;;;;;11.70;8.27;;;14.80;51.50;;;;;;5075499;28;47105;-65
2023/05/14 11:47:28;;;;;;;11.90;8.40;;;15.20;50.70;;;;;;5076883;28;46521;-65
2023/05/14 11:49:54;;;;;;;11.33;6.90;;;15.80;49.40;;;;;;5078927;28;46383;-65
2023/05/14 11:52:20;;;;;;;11.80;7.13;;;16.10;48.10;;;;;;5075349;28;46464;-65
2023/05/14 11:54:48;;;;;;;11.13;7.10;;;16.30;47.10;;;;;;5076181;28;46626;-66
2023/05/14 11:57:21;;;;;;;8.17;6.17;;;16.30;46.80;;;;;;5078638;28;46335;-64
2023/05/14 11:59:57;;;;;;;9.77;7.20;;;16.60;47.50;;;;;;5076392;28;46600;-65
2023/05/14 12:02:27;;;;;;;10.17;6.63;;;16.60;44.90;;;;;;5075248;28;46270;-64
2023/05/14 12:04:52;;;;;;;7.27;5.90;;;16.80;44.70;;;;;;5072839;28;48325;-64
2023/05/14 12:07:18;;;;;;;11.53;5.97;;;17.20;44.50;;;;;;5076385;28;46412;-65
2023/05/14 12:09:49;;;;;;;10.10;6.37;;;17.50;42.80;;;;;;5078290;28;46317;-65
2023/05/14 12:12:17;;;;;;;8.40;5.70;;;17.60;44.10;;;;;;5076084;28;46755;-65
2023/05/14 12:14:44;;;;;;;14.30;9.07;;;17.60;42.70;;;;;;5076346;28;46489;-65
2023/05/14 12:17:17;;;;;;;10.90;6.70;;;17.80;42.10;;;;;;5078111;28;46500;-66
2023/05/14 12:19:45;;;;;;;9.17;7.30;;;18.00;41.50;;;;;;5080231;28;46444;-66
2023/05/14 12:22:14;;;;;;;10.13;6.50;;;18.10;41.10;;;;;;5080350;27;46371;-64
2023/05/14 12:24:40;;;;;;;9.87;7.03;;;18.20;40.90;;;;;;5078804;28;47113;-64
2023/05/14 12:27:06;;;;;;;9.90;7.13;;;18.30;40.00;;;;;;5077723;28;46205;-64
2023/05/14 12:29:36;;;;;;;6.60;5.30;;;18.40;40.20;;;;;;5078600;28;46456;-65